createdAt,value
2023-02-14T00:00:26.866Z,18.80
2023-02-14T00:02:53.635Z,17.83
2023-02-14T00:05:20.303Z,18.83
2023-02-14T00:07:47.098Z,18.70
2023-02-14T00:10:13.839Z,18.23
2023-02-14T00:12:40.543Z,19.57
2023-02-14T00:15:22.596Z,18.33
2023-02-14T00:17:54.765Z,19.43
2023-02-14T00:20:23.227Z,18.40
2023-02-14T00:22:50.203Z,18.83
2023-02-14T00:25:18.219Z,17.63
2023-02-14T00:27:45.131Z,17.57
2023-02-14T00:30:13.163Z,16.60
2023-02-14T00:32:40.619Z,16.87
2023-02-14T00:35:09.109Z,17.40
2023-02-14T00:37:35.896Z,16.63
2023-02-14T00:40:02.635Z,18.30
2023-02-14T00:42:29.392Z,16.77
2023-02-14T00:44:56.099Z,19.30
2023-02-14T00:47:22.801Z,18.93
2023-02-14T00:49:49.473Z,17.73
2023-02-14T00:52:16.476Z,18.83
2023-02-14T00:54:43.257Z,17.60
2023-02-14T00:57:10.001Z,16.90
2023-02-14T00:59:37.017Z,17.47
2023-02-14T01:02:03.785Z,16.63
2023-02-14T01:04:30.547Z,15.77
2023-02-14T01:06:57.270Z,17.23
2023-02-14T01:09:24.017Z,17.00
2023-02-14T01:11:50.849Z,16.97
2023-02-14T01:14:17.588Z,17.37
2023-02-14T01:16:44.345Z,16.00
2023-02-14T01:19:11.244Z,16.93
2023-02-14T01:21:38.103Z,16.60
2023-02-14T01:24:07.560Z,16.80
2023-02-14T01:26:35.318Z,17.53
2023-02-14T01:29:03.557Z,16.10
2023-02-14T01:31:32.747Z,15.77
2023-02-14T01:34:00.168Z,17.10
2023-02-14T01:36:33.011Z,16.07
2023-02-14T01:39:03.951Z,16.20
2023-02-14T01:41:33.708Z,16.07
2023-02-14T01:44:02.064Z,16.20
2023-02-14T01:46:32.863Z,14.60
2023-02-14T01:49:09.086Z,15.70
2023-02-14T01:51:38.356Z,15.80
2023-02-14T01:54:07.364Z,15.53
2023-02-14T01:56:46.660Z,15.70
2023-02-14T01:59:16.446Z,14.07
2023-02-14T02:01:43.565Z,15.20
2023-02-14T02:04:19.298Z,14.00
2023-02-14T02:06:50.024Z,13.50
2023-02-14T02:09:33.094Z,14.33
2023-02-14T02:12:00.718Z,13.53
2023-02-14T02:14:29.409Z,13.97
2023-02-14T02:17:04.318Z,13.27
2023-02-14T02:19:51.543Z,13.57
2023-02-14T02:22:49.281Z,14.00
2023-02-14T02:25:37.046Z,14.63
2023-02-14T02:28:03.754Z,13.37
2023-02-14T02:31:07.313Z,14.07
2023-02-14T02:34:04.853Z,13.13
2023-02-14T02:36:46.437Z,13.03
2023-02-14T02:39:35.880Z,12.93
2023-02-14T02:42:12.454Z,12.67
2023-02-14T02:45:10.575Z,14.00
2023-02-14T02:47:57.250Z,14.47
2023-02-14T02:50:51.754Z,13.67
2023-02-14T02:53:28.344Z,13.33
2023-02-14T02:56:32.828Z,13.87
2023-02-14T02:59:18.238Z,14.27
2023-02-14T03:02:05.532Z,13.37
2023-02-14T03:04:53.027Z,12.57
2023-02-14T03:07:36.390Z,13.77
2023-02-14T03:10:25.339Z,13.77
2023-02-14T03:13:13.776Z,13.13
2023-02-14T03:16:22.192Z,13.20
2023-02-14T03:19:17.166Z,12.83
2023-02-14T03:22:02.203Z,13.20
2023-02-14T03:24:44.177Z,12.73
2023-02-14T03:27:25.517Z,13.23
2023-02-14T03:30:10.252Z,13.87
2023-02-14T03:32:49.918Z,13.67
2023-02-14T03:35:28.573Z,13.70
2023-02-14T03:38:12.219Z,12.90
2023-02-14T03:40:58.738Z,13.13
2023-02-14T03:43:30.794Z,12.43
2023-02-14T03:46:09.421Z,12.30
2023-02-14T03:48:39.312Z,13.87
2023-02-14T03:51:09.070Z,13.83
2023-02-14T03:53:38.739Z,13.87
2023-02-14T03:56:21.196Z,14.00
2023-02-14T03:58:53.609Z,12.90
2023-02-14T04:01:28.154Z,13.93
2023-02-14T04:03:59.513Z,14.03
2023-02-14T04:06:26.506Z,13.30
2023-02-14T04:08:53.171Z,14.53
2023-02-14T04:11:20.218Z,12.60
2023-02-14T04:13:46.881Z,14.17
2023-02-14T04:16:13.586Z,12.93
2023-02-14T04:18:58.807Z,14.20
2023-02-14T04:21:25.593Z,14.73
2023-02-14T04:23:52.219Z,13.40
2023-02-14T04:26:18.914Z,14.27
2023-02-14T04:28:45.623Z,14.27
2023-02-14T04:31:12.412Z,12.83
2023-02-14T04:33:39.350Z,14.90
2023-02-14T04:36:06.435Z,14.80
2023-02-14T04:38:33.407Z,14.20
2023-02-14T04:41:00.412Z,14.97
2023-02-14T04:43:27.291Z,15.20
2023-02-14T04:45:54.005Z,15.90
2023-02-14T04:48:20.698Z,15.23
2023-02-14T04:50:54.724Z,15.57
2023-02-14T04:53:22.253Z,14.47
2023-02-14T04:55:51.090Z,15.47
2023-02-14T04:58:18.033Z,15.93
2023-02-14T05:00:45.086Z,13.40
2023-02-14T05:03:11.865Z,15.33
2023-02-14T05:05:38.538Z,14.73
2023-02-14T05:08:05.220Z,14.80
2023-02-14T05:10:32.003Z,15.20
2023-02-14T05:12:58.674Z,16.67
2023-02-14T05:15:25.340Z,18.03
2023-02-14T05:17:52.051Z,15.27
2023-02-14T05:20:18.828Z,15.37
2023-02-14T05:22:45.520Z,14.80
2023-02-14T05:25:12.177Z,13.63
2023-02-14T05:27:38.859Z,15.23
2023-02-14T05:30:06.238Z,13.60
2023-02-14T05:32:32.987Z,13.90
2023-02-14T05:35:01.130Z,13.60
2023-02-14T05:37:28.063Z,17.07
2023-02-14T05:39:54.733Z,29.57
2023-02-14T05:42:21.490Z,18.33
2023-02-14T05:44:48.749Z,14.87
2023-02-14T05:47:15.582Z,18.33
2023-02-14T05:49:42.290Z,17.57
2023-02-14T05:52:09.042Z,19.87
2023-02-14T05:54:36.008Z,14.40
2023-02-14T05:57:02.765Z,13.03
2023-02-14T05:59:29.425Z,13.47
2023-02-14T06:01:56.100Z,12.20
2023-02-14T06:04:22.760Z,13.03
2023-02-14T06:06:49.471Z,12.57
2023-02-14T06:09:16.381Z,12.20
2023-02-14T06:11:43.057Z,11.90
2023-02-14T06:14:09.703Z,11.57
2023-02-14T06:16:36.666Z,12.73
2023-02-14T06:19:03.382Z,14.93
2023-02-14T06:21:30.062Z,14.47
2023-02-14T06:23:56.893Z,12.67
2023-02-14T06:26:27.811Z,12.17
2023-02-14T06:28:55.410Z,11.57
2023-02-14T06:31:22.620Z,13.27
2023-02-14T06:33:49.362Z,11.67
2023-02-14T06:36:16.522Z,13.13
2023-02-14T06:38:43.298Z,12.40
2023-02-14T06:41:11.383Z,13.03
2023-02-14T06:43:38.335Z,11.40
2023-02-14T06:46:05.263Z,12.97
2023-02-14T06:48:32.259Z,10.87
2023-02-14T06:50:59.252Z,12.53
2023-02-14T06:53:26.099Z,12.27
2023-02-14T06:55:52.896Z,13.47
2023-02-14T06:58:19.636Z,11.83
2023-02-14T07:00:47.144Z,10.77
2023-02-14T07:03:14.359Z,9.20
2023-02-14T07:05:41.201Z,9.60
2023-02-14T07:08:08.184Z,12.13
2023-02-14T07:10:35.337Z,11.17
2023-02-14T07:13:02.257Z,11.77
2023-02-14T07:15:29.012Z,10.90
2023-02-14T07:17:56.140Z,11.80
2023-02-14T07:20:22.816Z,10.97
2023-02-14T07:22:49.502Z,10.43
2023-02-14T07:25:16.199Z,12.10
2023-02-14T07:27:43.649Z,11.53
2023-02-14T07:30:11.483Z,10.93
2023-02-14T07:32:39.091Z,10.77
2023-02-14T07:35:06.228Z,12.20
2023-02-14T07:37:34.259Z,10.60
2023-02-14T07:40:01.268Z,10.30
2023-02-14T07:42:28.143Z,10.87
2023-02-14T07:44:54.962Z,11.23
2023-02-14T07:47:21.636Z,12.23
2023-02-14T07:49:48.319Z,12.33
2023-02-14T07:52:15.020Z,17.30
2023-02-14T07:54:41.890Z,23.77
2023-02-14T07:57:08.683Z,14.67
2023-02-14T07:59:35.349Z,11.50
2023-02-14T08:02:02.039Z,10.83
2023-02-14T08:04:28.808Z,11.40
2023-02-14T08:06:55.444Z,11.13
2023-02-14T08:09:27.091Z,11.23
2023-02-14T08:12:14.935Z,9.70
2023-02-14T08:14:42.720Z,9.87
2023-02-14T08:17:13.437Z,10.83
2023-02-14T08:19:40.587Z,11.73
2023-02-14T08:22:07.649Z,11.83
2023-02-14T08:24:34.328Z,13.70
2023-02-14T08:27:00.988Z,12.13
2023-02-14T08:29:27.668Z,11.90
2023-02-14T08:31:54.589Z,11.20
2023-02-14T08:34:21.305Z,12.00
2023-02-14T08:36:47.986Z,12.53
2023-02-14T08:39:15.243Z,11.87
2023-02-14T08:41:42.006Z,11.73
2023-02-14T08:44:08.691Z,11.90
2023-02-14T08:46:36.286Z,12.90
2023-02-14T08:49:03.022Z,12.23
2023-02-14T08:51:29.736Z,13.57
2023-02-14T08:53:56.556Z,13.63
2023-02-14T08:56:23.677Z,12.23
2023-02-14T08:58:54.809Z,12.20
2023-02-14T09:01:21.649Z,11.80
2023-02-14T09:03:48.380Z,12.27
2023-02-14T09:06:17.275Z,12.17
2023-02-14T09:08:44.758Z,12.30
2023-02-14T09:11:14.492Z,12.30
2023-02-14T09:13:42.742Z,12.60
2023-02-14T09:16:11.034Z,13.87
2023-02-14T09:18:38.392Z,13.73
2023-02-14T09:21:16.782Z,13.57
2023-02-14T09:23:43.698Z,13.37
2023-02-14T09:26:12.792Z,14.40
2023-02-14T09:28:40.531Z,12.50
2023-02-14T09:31:14.620Z,12.73
2023-02-14T09:33:42.055Z,14.17
2023-02-14T09:36:11.936Z,14.00
2023-02-14T09:38:38.908Z,14.70
2023-02-14T09:41:10.173Z,13.93
2023-02-14T09:43:44.861Z,14.70
2023-02-14T09:46:17.186Z,13.73
2023-02-14T09:48:47.620Z,14.37
2023-02-14T09:51:20.222Z,14.40
2023-02-14T09:53:51.771Z,13.73
2023-02-14T09:56:51.323Z,13.70
2023-02-14T09:59:30.981Z,15.57
2023-02-14T10:02:22.650Z,13.97
2023-02-14T10:05:06.378Z,14.47
2023-02-14T10:07:48.600Z,14.60
2023-02-14T10:10:24.119Z,13.40
2023-02-14T10:13:14.133Z,15.07
2023-02-14T10:15:47.770Z,16.63
2023-02-14T10:18:17.727Z,15.00
2023-02-14T10:21:15.659Z,15.20
2023-02-14T10:23:50.529Z,15.53
2023-02-14T10:26:39.944Z,15.90
2023-02-14T10:29:13.301Z,15.30
2023-02-14T10:32:03.174Z,15.50
2023-02-14T10:34:48.049Z,16.60
2023-02-14T10:37:38.420Z,17.40
2023-02-14T10:40:04.996Z,18.53
2023-02-14T10:42:53.225Z,17.87
2023-02-14T10:45:22.953Z,18.53
2023-02-14T10:48:14.194Z,18.60
2023-02-14T10:51:02.320Z,19.17
2023-02-14T10:53:40.808Z,17.60
2023-02-14T10:56:23.097Z,19.07
2023-02-14T10:58:52.387Z,20.47
2023-02-14T11:01:19.441Z,18.37
2023-02-14T11:04:03.688Z,20.13
2023-02-14T11:06:31.157Z,18.47
2023-02-14T11:08:58.477Z,18.73
2023-02-14T11:12:03.578Z,20.27
2023-02-14T11:14:34.145Z,20.17
2023-02-14T11:17:19.990Z,18.83
2023-02-14T11:19:56.989Z,17.13
2023-02-14T11:22:31.311Z,19.60
2023-02-14T11:25:19.316Z,18.23
2023-02-14T11:27:50.153Z,19.07
2023-02-14T11:30:27.995Z,18.50
2023-02-14T11:32:57.489Z,18.63
2023-02-14T11:35:30.404Z,18.23
2023-02-14T11:37:58.099Z,20.73
2023-02-14T11:40:36.639Z,19.07
2023-02-14T11:43:15.306Z,18.80
2023-02-14T11:45:44.654Z,19.03
2023-02-14T11:48:37.371Z,19.03
2023-02-14T11:51:09.279Z,18.40
2023-02-14T11:53:43.854Z,20.00
2023-02-14T11:56:10.801Z,19.97
2023-02-14T11:58:45.745Z,21.37
2023-02-14T12:01:22.029Z,20.13
2023-02-14T12:03:49.911Z,19.93
2023-02-14T12:06:28.811Z,20.33
2023-02-14T12:09:13.689Z,21.40
2023-02-14T12:11:40.469Z,20.33
2023-02-14T12:14:21.952Z,21.57
2023-02-14T12:17:02.855Z,20.27
2023-02-14T12:20:13.116Z,22.50
2023-02-14T12:22:56.954Z,21.97
2023-02-14T12:25:27.236Z,21.77
2023-02-14T12:28:12.535Z,21.10
2023-02-14T12:30:39.272Z,21.50
2023-02-14T12:33:20.755Z,22.67
2023-02-14T12:36:01.103Z,23.27
2023-02-14T12:38:57.208Z,23.63
2023-02-14T12:42:03.642Z,22.17
2023-02-14T12:44:45.441Z,22.43
2023-02-14T12:47:20.906Z,21.07
2023-02-14T12:50:00.780Z,22.93
2023-02-14T12:52:50.229Z,22.87
2023-02-14T12:55:29.606Z,22.00
2023-02-14T12:58:28.029Z,20.87
2023-02-14T13:01:28.844Z,22.10
2023-02-14T13:04:27.074Z,23.30
2023-02-14T13:07:09.461Z,21.67
2023-02-14T13:09:56.577Z,23.00
2023-02-14T13:12:57.455Z,22.67
2023-02-14T13:15:56.576Z,33.40
2023-02-14T13:18:29.044Z,24.60
2023-02-14T13:21:04.055Z,24.50
2023-02-14T13:23:36.193Z,24.57
2023-02-14T13:26:09.475Z,22.87
2023-02-14T13:28:38.454Z,22.10
2023-02-14T13:31:05.885Z,23.70
2023-02-14T13:33:44.290Z,22.60
2023-02-14T13:36:13.386Z,23.20
2023-02-14T13:38:51.332Z,22.67
2023-02-14T13:41:19.869Z,21.47
2023-02-14T13:44:02.460Z,21.63
2023-02-14T13:46:32.284Z,22.60
2023-02-14T13:49:03.435Z,22.37
2023-02-14T13:51:51.024Z,23.03
2023-02-14T13:54:28.171Z,24.20
2023-02-14T13:56:55.211Z,25.17
2023-02-14T13:59:35.487Z,23.80
2023-02-14T14:02:30.090Z,25.87
2023-02-14T14:04:57.114Z,23.47
2023-02-14T14:07:30.025Z,23.97
2023-02-14T14:09:59.346Z,29.53
2023-02-14T14:12:29.150Z,26.83
2023-02-14T14:15:05.126Z,25.70
2023-02-14T14:17:34.748Z,26.47
2023-02-14T14:20:04.695Z,26.77
2023-02-14T14:22:31.594Z,25.57
2023-02-14T14:25:01.723Z,23.50
2023-02-14T14:27:40.770Z,21.63
2023-02-14T14:30:19.407Z,24.23
2023-02-14T14:32:46.534Z,23.30
2023-02-14T14:35:13.204Z,25.50
2023-02-14T14:37:58.439Z,24.47
2023-02-14T14:40:29.589Z,26.20
2023-02-14T14:43:01.687Z,24.73
2023-02-14T14:45:31.372Z,26.60
2023-02-14T14:48:00.439Z,25.47
2023-02-14T14:50:30.980Z,26.10
2023-02-14T14:53:04.677Z,24.67
2023-02-14T14:55:35.358Z,23.70
2023-02-14T14:58:05.561Z,24.77
2023-02-14T15:00:34.780Z,24.10
2023-02-14T15:03:10.534Z,28.70
2023-02-14T15:05:40.393Z,24.80
2023-02-14T15:08:22.976Z,26.70
2023-02-14T15:10:56.173Z,24.90
2023-02-14T15:13:50.911Z,26.00
2023-02-14T15:16:22.426Z,27.87
2023-02-14T15:18:51.119Z,28.53
2023-02-14T15:21:18.175Z,26.50
2023-02-14T15:23:45.844Z,25.00
2023-02-14T15:26:29.796Z,27.27
2023-02-14T15:29:01.755Z,25.93
2023-02-14T15:31:31.631Z,25.33
2023-02-14T15:34:01.265Z,26.70
2023-02-14T15:36:28.458Z,24.73
2023-02-14T15:38:56.780Z,26.30
2023-02-14T15:41:26.798Z,27.27
2023-02-14T15:43:56.447Z,24.53
2023-02-14T15:46:35.992Z,31.90
2023-02-14T15:49:10.591Z,27.83
2023-02-14T15:51:38.501Z,25.10
2023-02-14T15:54:27.573Z,27.07
2023-02-14T15:56:56.651Z,27.83
2023-02-14T15:59:29.627Z,27.80
2023-02-14T16:02:37.677Z,29.03
2023-02-14T16:05:22.227Z,30.83
2023-02-14T16:08:05.761Z,27.67
2023-02-14T16:10:39.266Z,30.33
2023-02-14T16:13:15.158Z,32.03
2023-02-14T16:16:04.272Z,32.57
2023-02-14T16:18:37.882Z,32.60
2023-02-14T16:21:18.834Z,30.70
2023-02-14T16:23:47.784Z,31.03
2023-02-14T16:26:14.990Z,29.97
2023-02-14T16:28:43.372Z,33.50
2023-02-14T16:31:15.311Z,32.70
2023-02-14T16:33:42.240Z,34.10
2023-02-14T16:36:26.486Z,32.63
2023-02-14T16:38:53.842Z,178.13
2023-02-14T16:41:24.090Z,55.93
2023-02-14T16:43:51.123Z,65.03
2023-02-14T16:46:26.537Z,48.03
2023-02-14T16:48:53.430Z,34.53
2023-02-14T16:51:23.155Z,37.10
2023-02-14T16:53:50.503Z,35.77
2023-02-14T16:56:33.384Z,35.20
2023-02-14T16:59:00.151Z,33.07
2023-02-14T17:01:27.713Z,34.20
2023-02-14T17:03:54.484Z,66.30
2023-02-14T17:06:27.396Z,46.70
2023-02-14T17:08:55.778Z,35.07
2023-02-14T17:11:25.028Z,31.50
2023-02-14T17:13:52.882Z,31.97
2023-02-14T17:16:20.213Z,31.90
2023-02-14T17:18:50.310Z,33.63
2023-02-14T17:21:22.033Z,34.70
2023-02-14T17:23:48.982Z,33.17
2023-02-14T17:26:17.875Z,36.77
2023-02-14T17:28:46.458Z,31.97
2023-02-14T17:31:13.804Z,31.03
2023-02-14T17:33:40.687Z,31.40
2023-02-14T17:36:12.500Z,38.07
2023-02-14T17:38:40.727Z,31.70
2023-02-14T17:41:19.102Z,31.77
2023-02-14T17:43:46.393Z,29.10
2023-02-14T17:46:16.247Z,29.93
2023-02-14T17:48:45.530Z,29.13
2023-02-14T17:51:13.634Z,28.87
2023-02-14T17:53:43.323Z,28.13
2023-02-14T17:56:18.065Z,27.77
2023-02-14T17:58:47.644Z,26.97
2023-02-14T18:01:15.828Z,26.77
2023-02-14T18:03:42.694Z,26.97
2023-02-14T18:06:11.373Z,32.63
2023-02-14T18:08:41.275Z,46.03
2023-02-14T18:11:10.289Z,34.17
2023-02-14T18:13:37.544Z,40.87
2023-02-14T18:16:06.464Z,35.90
2023-02-14T18:18:33.497Z,28.93
2023-02-14T18:21:02.354Z,35.20
2023-02-14T18:23:30.758Z,27.90
2023-02-14T18:26:01.078Z,28.63
2023-02-14T18:28:28.358Z,28.73
2023-02-14T18:30:57.856Z,27.33
2023-02-14T18:33:25.669Z,26.97
2023-02-14T18:35:52.546Z,26.87
2023-02-14T18:38:19.710Z,27.70
2023-02-14T18:40:46.800Z,29.00
2023-02-14T18:43:13.708Z,28.70
2023-02-14T18:45:40.871Z,26.83
2023-02-14T18:48:09.054Z,27.87
2023-02-14T18:50:35.782Z,26.23
2023-02-14T18:53:02.524Z,26.83
2023-02-14T18:55:29.621Z,29.97
2023-02-14T18:57:56.439Z,25.90
2023-02-14T19:00:23.500Z,26.23
2023-02-14T19:02:50.240Z,24.00
2023-02-14T19:05:17.176Z,26.70
2023-02-14T19:07:44.563Z,25.77
2023-02-14T19:10:11.340Z,25.60
2023-02-14T19:12:38.071Z,26.80
2023-02-14T19:15:06.002Z,26.60
2023-02-14T19:17:32.948Z,28.53
2023-02-14T19:19:59.913Z,23.97
2023-02-14T19:22:26.669Z,22.70
2023-02-14T19:24:53.912Z,24.53
2023-02-14T19:27:22.398Z,24.37
2023-02-14T19:29:49.423Z,23.57
2023-02-14T19:32:16.272Z,23.53
2023-02-14T19:34:42.902Z,24.07
2023-02-14T19:37:09.613Z,24.27
2023-02-14T19:39:36.354Z,25.50
2023-02-14T19:42:05.244Z,24.60
2023-02-14T19:44:32.548Z,23.33
2023-02-14T19:47:19.295Z,24.53
2023-02-14T19:49:51.061Z,26.33
2023-02-14T19:52:26.397Z,23.97
2023-02-14T19:54:55.417Z,24.90
2023-02-14T19:57:22.170Z,25.27
2023-02-14T19:59:49.015Z,26.03
2023-02-14T20:02:18.871Z,23.90
2023-02-14T20:04:45.785Z,25.90
2023-02-14T20:07:13.048Z,27.80
2023-02-14T20:09:39.763Z,25.37
2023-02-14T20:12:06.956Z,23.37
2023-02-14T20:14:49.835Z,27.77
2023-02-14T20:17:17.960Z,31.87
2023-02-14T20:19:44.867Z,26.60
2023-02-14T20:22:11.900Z,24.20
2023-02-14T20:24:38.609Z,25.43
2023-02-14T20:27:05.353Z,25.63
2023-02-14T20:29:32.315Z,27.40
2023-02-14T20:32:00.092Z,27.30
2023-02-14T20:34:27.274Z,27.00
2023-02-14T20:36:55.578Z,24.93
2023-02-14T20:39:26.955Z,26.33
2023-02-14T20:41:54.206Z,25.77
2023-02-14T20:44:21.685Z,26.57
2023-02-14T20:46:51.486Z,26.67
2023-02-14T20:49:19.030Z,24.57
2023-02-14T20:51:46.553Z,26.70
2023-02-14T20:54:13.439Z,28.17
2023-02-14T20:56:40.326Z,28.20
2023-02-14T20:59:09.390Z,27.77
2023-02-14T21:01:36.445Z,25.63
2023-02-14T21:04:03.222Z,26.00
2023-02-14T21:06:32.758Z,25.63
2023-02-14T21:09:00.433Z,26.23
2023-02-14T21:11:27.943Z,27.67
2023-02-14T21:13:59.246Z,26.83
2023-02-14T21:16:27.771Z,27.50
2023-02-14T21:18:59.142Z,30.33
2023-02-14T21:21:32.193Z,26.50
2023-02-14T21:24:00.384Z,26.30
2023-02-14T21:26:28.025Z,25.33
2023-02-14T21:28:55.011Z,34.27
2023-02-14T21:31:23.343Z,30.07
2023-02-14T21:33:51.837Z,26.00
2023-02-14T21:36:20.400Z,26.17
2023-02-14T21:38:47.672Z,25.43
2023-02-14T21:41:17.662Z,24.20
2023-02-14T21:43:46.337Z,24.70
2023-02-14T21:46:16.356Z,27.10
2023-02-14T21:49:02.185Z,23.63
2023-02-14T21:51:29.589Z,24.37
2023-02-14T21:53:57.162Z,27.23
2023-02-14T21:56:24.013Z,26.03
2023-02-14T21:58:52.976Z,23.87
2023-02-14T22:01:26.466Z,23.47
2023-02-14T22:03:54.299Z,26.10
2023-02-14T22:06:21.913Z,24.80
2023-02-14T22:08:56.066Z,24.73
2023-02-14T22:11:24.407Z,25.13
2023-02-14T22:13:51.109Z,23.47
2023-02-14T22:16:19.970Z,23.77
2023-02-14T22:18:47.887Z,23.97
2023-02-14T22:21:18.244Z,23.53
2023-02-14T22:23:45.414Z,23.77
2023-02-14T22:26:17.436Z,24.23
2023-02-14T22:28:46.411Z,22.67
2023-02-14T22:31:14.269Z,23.20
2023-02-14T22:33:41.172Z,23.60
2023-02-14T22:36:09.037Z,22.57
2023-02-14T22:38:36.462Z,22.73
2023-02-14T22:41:20.800Z,21.97
2023-02-14T22:43:48.104Z,21.83
2023-02-14T22:46:20.013Z,22.33
2023-02-14T22:48:48.380Z,22.10
2023-02-14T22:51:32.931Z,22.53
2023-02-14T22:54:02.405Z,22.87
2023-02-14T22:56:31.465Z,21.67
2023-02-14T22:59:00.774Z,23.83
2023-02-14T23:01:28.474Z,22.23
2023-02-14T23:03:57.043Z,22.90
2023-02-14T23:06:24.809Z,22.17
2023-02-14T23:08:52.252Z,21.53
2023-02-14T23:11:24.544Z,23.00
2023-02-14T23:14:10.147Z,22.30
2023-02-14T23:16:55.607Z,21.53
2023-02-14T23:19:44.118Z,20.90
2023-02-14T23:22:13.890Z,19.83
2023-02-14T23:24:40.692Z,19.10
2023-02-14T23:27:08.576Z,19.50
2023-02-14T23:29:36.981Z,18.93
2023-02-14T23:32:05.101Z,20.00
2023-02-14T23:34:34.583Z,19.43
2023-02-14T23:37:01.882Z,19.27
2023-02-14T23:39:28.835Z,17.70
2023-02-14T23:41:55.786Z,18.23
2023-02-14T23:44:25.502Z,18.07
2023-02-14T23:46:55.130Z,17.50
2023-02-14T23:49:22.967Z,17.63
2023-02-14T23:51:51.507Z,17.87
2023-02-14T23:54:19.158Z,17.13
2023-02-14T23:56:46.032Z,18.50
2023-02-14T23:59:14.461Z,17.73
